createdAt,value
2023-12-30T00:02:20.947Z,63.00
2023-12-30T00:04:47.629Z,63.10
2023-12-30T00:07:14.434Z,63.10
2023-12-30T00:09:42.108Z,63.10
2023-12-30T00:12:08.869Z,63.10
2023-12-30T00:14:35.548Z,63.10
2023-12-30T00:17:02.202Z,63.10
2023-12-30T00:19:28.900Z,63.20
2023-12-30T00:21:55.582Z,63.40
2023-12-30T00:24:22.274Z,63.50
2023-12-30T00:26:48.887Z,63.60
2023-12-30T00:29:15.554Z,63.70
2023-12-30T00:31:42.271Z,63.70
2023-12-30T00:34:09.239Z,63.60
2023-12-30T00:36:35.832Z,63.60
2023-12-30T00:39:02.532Z,63.70
2023-12-30T00:41:29.184Z,63.70
2023-12-30T00:43:55.805Z,63.80
2023-12-30T00:46:23.036Z,63.80
2023-12-30T00:48:56.995Z,63.90
2023-12-30T00:51:24.914Z,64.00
2023-12-30T00:53:51.714Z,64.20
2023-12-30T00:56:18.438Z,64.30
2023-12-30T00:58:45.255Z,64.30
2023-12-30T01:01:11.966Z,64.40
2023-12-30T01:03:41.387Z,64.50
2023-12-30T01:06:08.312Z,64.70
2023-12-30T01:08:35.049Z,64.80
2023-12-30T01:11:01.807Z,64.80
2023-12-30T01:13:28.432Z,64.90
2023-12-30T01:15:55.129Z,64.90
2023-12-30T01:18:21.986Z,65.00
2023-12-30T01:20:48.691Z,65.00
2023-12-30T01:23:15.612Z,65.10
2023-12-30T01:25:43.399Z,65.10
2023-12-30T01:28:10.562Z,65.10
2023-12-30T01:30:38.123Z,65.10
2023-12-30T01:33:06.445Z,65.10
2023-12-30T01:35:33.720Z,65.10
2023-12-30T01:38:03.110Z,65.00
2023-12-30T01:40:31.277Z,65.10
2023-12-30T01:42:58.246Z,65.10
2023-12-30T01:45:25.001Z,65.20
2023-12-30T01:47:52.370Z,65.20
2023-12-30T01:50:19.753Z,65.20
2023-12-30T01:52:48.276Z,65.20
2023-12-30T01:55:17.204Z,65.30
2023-12-30T01:57:45.348Z,65.30
2023-12-30T02:00:18.205Z,65.30
2023-12-30T02:02:44.974Z,65.40
2023-12-30T02:05:12.857Z,65.40
2023-12-30T02:07:41.100Z,65.40
2023-12-30T02:10:09.436Z,65.40
2023-12-30T02:12:36.116Z,65.40
2023-12-30T02:15:16.915Z,65.40
2023-12-30T02:17:43.654Z,65.50
2023-12-30T02:20:11.010Z,65.50
2023-12-30T02:22:45.147Z,65.60
2023-12-30T02:25:12.179Z,65.80
2023-12-30T02:27:38.880Z,65.90
2023-12-30T02:30:06.173Z,65.90
2023-12-30T02:32:32.869Z,66.10
2023-12-30T02:34:59.540Z,66.20
2023-12-30T02:37:26.218Z,66.30
2023-12-30T02:39:52.945Z,66.40
2023-12-30T02:42:19.634Z,66.60
2023-12-30T02:44:46.279Z,66.60
2023-12-30T02:47:13.297Z,66.70
2023-12-30T02:49:43.666Z,66.70
2023-12-30T02:52:10.351Z,66.90
2023-12-30T02:54:37.062Z,67.00
2023-12-30T02:57:04.879Z,67.10
2023-12-30T02:59:32.091Z,67.30
2023-12-30T03:01:58.959Z,67.40
2023-12-30T03:04:25.828Z,67.50
2023-12-30T03:06:52.536Z,67.40
2023-12-30T03:09:19.152Z,67.40
2023-12-30T03:11:45.752Z,67.60
2023-12-30T03:14:12.372Z,67.90
2023-12-30T03:16:38.969Z,68.00
2023-12-30T03:19:05.740Z,68.00
2023-12-30T03:21:32.468Z,68.20
2023-12-30T03:23:59.165Z,68.30
2023-12-30T03:26:25.778Z,68.40
2023-12-30T03:28:52.451Z,68.50
2023-12-30T03:31:26.806Z,68.50
2023-12-30T03:33:54.295Z,68.70
2023-12-30T03:36:21.541Z,68.90
2023-12-30T03:38:49.936Z,69.00
2023-12-30T03:41:17.507Z,69.10
2023-12-30T03:43:44.504Z,69.10
2023-12-30T03:46:11.503Z,69.10
2023-12-30T03:48:38.836Z,69.10
2023-12-30T03:51:07.017Z,69.20
2023-12-30T03:53:34.167Z,69.30
2023-12-30T03:56:01.356Z,69.40
2023-12-30T03:58:28.186Z,69.50
2023-12-30T04:00:55.090Z,69.60
2023-12-30T04:03:21.896Z,69.70
2023-12-30T04:05:48.587Z,69.70
2023-12-30T04:08:15.217Z,69.70
2023-12-30T04:10:41.928Z,69.70
2023-12-30T04:13:10.531Z,69.80
2023-12-30T04:15:37.924Z,69.90
2023-12-30T04:18:05.034Z,69.90
2023-12-30T04:20:31.874Z,70.00
2023-12-30T04:22:58.819Z,70.00
2023-12-30T04:25:25.534Z,70.00
2023-12-30T04:27:52.242Z,70.00
2023-12-30T04:30:19.110Z,70.00
2023-12-30T04:32:45.836Z,70.10
2023-12-30T04:35:12.590Z,70.10
2023-12-30T04:37:39.200Z,70.20
2023-12-30T04:40:06.459Z,70.30
2023-12-30T04:42:33.268Z,70.40
2023-12-30T04:44:59.927Z,70.40
2023-12-30T04:47:26.579Z,70.30
2023-12-30T04:49:53.251Z,70.30
2023-12-30T04:52:19.926Z,70.20
2023-12-30T04:54:46.540Z,70.30
2023-12-30T04:57:13.204Z,70.30
2023-12-30T04:59:39.846Z,70.30
2023-12-30T05:02:06.466Z,70.40
2023-12-30T05:04:33.130Z,70.50
2023-12-30T05:06:59.876Z,70.50
2023-12-30T05:09:26.567Z,70.50
2023-12-30T05:11:53.246Z,70.50
2023-12-30T05:14:21.018Z,70.60
2023-12-30T05:16:47.846Z,70.70
2023-12-30T05:19:14.857Z,70.70
2023-12-30T05:21:42.849Z,70.70
2023-12-30T05:24:10.299Z,70.70
2023-12-30T05:26:37.401Z,70.90
2023-12-30T05:29:04.039Z,71.00
2023-12-30T05:31:30.735Z,70.90
2023-12-30T05:33:57.597Z,71.00
2023-12-30T05:36:24.463Z,71.00
2023-12-30T05:38:51.156Z,71.00
2023-12-30T05:41:17.852Z,70.90
2023-12-30T05:43:44.534Z,70.80
2023-12-30T05:46:17.747Z,70.80
2023-12-30T05:48:45.308Z,70.70
2023-12-30T05:51:12.725Z,70.60
2023-12-30T05:53:42.544Z,70.50
2023-12-30T05:56:09.229Z,70.50
2023-12-30T05:58:36.071Z,70.40
2023-12-30T06:01:03.385Z,70.40
2023-12-30T06:03:30.394Z,70.40
2023-12-30T06:05:57.094Z,70.30
2023-12-30T06:08:23.946Z,70.30
2023-12-30T06:10:52.575Z,70.20
2023-12-30T06:13:19.324Z,70.20
2023-12-30T06:15:51.049Z,70.10
2023-12-30T06:18:18.443Z,70.10
2023-12-30T06:20:48.607Z,70.00
2023-12-30T06:23:15.235Z,70.00
2023-12-30T06:25:42.920Z,69.90
2023-12-30T06:28:09.766Z,69.90
2023-12-30T06:30:36.577Z,69.80
2023-12-30T06:33:08.276Z,69.80
2023-12-30T06:35:35.789Z,69.80
2023-12-30T06:38:03.237Z,69.80
2023-12-30T06:40:30.053Z,69.80
2023-12-30T06:42:56.801Z,69.70
2023-12-30T06:45:23.534Z,69.70
2023-12-30T06:47:50.318Z,69.60
2023-12-30T06:50:19.566Z,69.60
2023-12-30T06:52:48.240Z,69.50
2023-12-30T06:55:21.189Z,69.40
2023-12-30T06:57:53.175Z,69.40
2023-12-30T07:00:20.840Z,69.30
2023-12-30T07:02:47.504Z,69.30
2023-12-30T07:05:14.287Z,69.30
2023-12-30T07:07:40.952Z,69.30
2023-12-30T07:10:08.102Z,69.30
2023-12-30T07:12:34.823Z,69.30
2023-12-30T07:15:01.612Z,69.30
2023-12-30T07:17:28.502Z,69.30
2023-12-30T07:19:55.360Z,69.30
2023-12-30T07:22:22.430Z,69.30
2023-12-30T07:24:49.016Z,69.20
2023-12-30T07:27:15.922Z,69.20
2023-12-30T07:29:42.652Z,69.20
2023-12-30T07:32:09.309Z,69.20
2023-12-30T07:34:36.025Z,69.30
2023-12-30T07:37:03.175Z,69.40
2023-12-30T07:39:29.999Z,69.50
2023-12-30T07:41:56.603Z,69.50
2023-12-30T07:44:23.243Z,69.60
2023-12-30T07:46:49.904Z,69.70
2023-12-30T07:49:18.322Z,69.70
2023-12-30T07:51:45.337Z,69.70
2023-12-30T07:54:13.904Z,69.70
2023-12-30T07:56:40.613Z,69.70
2023-12-30T07:59:07.265Z,69.60
2023-12-30T08:01:34.039Z,69.60
2023-12-30T08:04:01.704Z,69.50
2023-12-30T08:06:28.406Z,69.40
2023-12-30T08:08:55.005Z,69.40
2023-12-30T08:11:21.711Z,69.40
2023-12-30T08:13:48.416Z,69.40
2023-12-30T08:16:15.064Z,69.30
2023-12-30T08:18:41.789Z,69.30
2023-12-30T08:21:08.549Z,69.40
2023-12-30T08:23:35.207Z,69.40
2023-12-30T08:26:01.824Z,69.10
2023-12-30T08:28:28.627Z,69.00
2023-12-30T08:30:56.014Z,69.00
2023-12-30T08:33:22.974Z,68.90
2023-12-30T08:35:50.423Z,69.10
2023-12-30T08:38:20.070Z,68.80
2023-12-30T08:40:46.735Z,68.60
2023-12-30T08:43:14.772Z,68.60
2023-12-30T08:45:41.454Z,68.50
2023-12-30T08:48:08.245Z,68.50
2023-12-30T08:50:34.905Z,68.50
2023-12-30T08:53:01.807Z,68.40
2023-12-30T08:55:28.552Z,68.40
2023-12-30T08:57:55.257Z,68.40
2023-12-30T09:00:21.914Z,68.30
2023-12-30T09:02:49.440Z,68.30
2023-12-30T09:05:21.721Z,68.20
2023-12-30T09:07:50.140Z,68.20
2023-12-30T09:10:18.374Z,68.20
2023-12-30T09:12:48.223Z,68.20
2023-12-30T09:15:14.822Z,68.40
2023-12-30T09:17:41.634Z,68.30
2023-12-30T09:20:08.806Z,68.10
2023-12-30T09:22:35.713Z,67.90
2023-12-30T09:25:02.434Z,67.90
2023-12-30T09:27:29.111Z,67.80
2023-12-30T09:29:55.703Z,67.80
2023-12-30T09:32:24.286Z,67.60
2023-12-30T09:34:51.242Z,67.50
2023-12-30T09:37:19.711Z,67.50
2023-12-30T09:39:46.961Z,67.40
2023-12-30T09:42:14.037Z,67.30
2023-12-30T09:44:41.243Z,67.30
2023-12-30T09:47:11.294Z,67.30
2023-12-30T09:49:38.412Z,67.30
2023-12-30T09:52:09.052Z,67.20
2023-12-30T09:54:45.578Z,67.10
2023-12-30T09:57:16.000Z,67.00
2023-12-30T09:59:45.086Z,66.90
2023-12-30T10:02:14.018Z,67.00
2023-12-30T10:04:40.772Z,66.80
2023-12-30T10:07:08.637Z,66.70
2023-12-30T10:09:35.761Z,66.40
2023-12-30T10:12:03.177Z,66.20
2023-12-30T10:14:29.875Z,65.80
2023-12-30T10:16:56.539Z,65.60
2023-12-30T10:19:23.269Z,65.40
2023-12-30T10:21:50.328Z,65.30
2023-12-30T10:24:17.482Z,65.20
2023-12-30T10:26:44.521Z,65.10
2023-12-30T10:29:12.284Z,65.10
2023-12-30T10:31:39.231Z,65.10
2023-12-30T10:34:07.036Z,65.00
2023-12-30T10:36:34.315Z,65.00
2023-12-30T10:39:04.401Z,64.70
2023-12-30T10:41:31.308Z,64.80
2023-12-30T10:43:57.862Z,64.70
2023-12-30T10:46:26.614Z,64.60
2023-12-30T10:48:57.695Z,64.40
2023-12-30T10:51:26.866Z,64.30
2023-12-30T10:54:20.812Z,64.10
2023-12-30T10:56:58.344Z,63.80
2023-12-30T10:59:28.988Z,63.70
2023-12-30T11:01:55.862Z,63.60
2023-12-30T11:04:23.166Z,63.50
2023-12-30T11:06:55.779Z,63.50
2023-12-30T11:09:28.395Z,63.50
2023-12-30T11:11:57.509Z,63.40
2023-12-30T11:14:25.351Z,63.40
2023-12-30T11:16:52.064Z,63.30
2023-12-30T11:19:29.445Z,63.30
2023-12-30T11:22:01.104Z,63.10
2023-12-30T11:24:28.582Z,63.10
2023-12-30T11:26:56.614Z,63.10
2023-12-30T11:29:28.807Z,63.10
2023-12-30T11:32:00.173Z,63.10
2023-12-30T11:34:27.899Z,63.00
2023-12-30T11:36:55.596Z,63.10
2023-12-30T11:39:29.092Z,63.00
2023-12-30T11:41:58.757Z,62.90
2023-12-30T11:44:25.787Z,62.90
2023-12-30T11:46:52.758Z,62.80
2023-12-30T11:49:27.033Z,62.60
2023-12-30T11:52:04.988Z,62.20
2023-12-30T11:54:33.600Z,61.90
2023-12-30T11:57:00.447Z,61.80
2023-12-30T11:59:27.210Z,61.60
2023-12-30T12:01:53.883Z,61.50
2023-12-30T12:04:20.625Z,61.40
2023-12-30T12:06:47.938Z,61.50
2023-12-30T12:09:14.593Z,61.30
2023-12-30T12:11:41.251Z,61.20
2023-12-30T12:14:08.020Z,61.10
2023-12-30T12:16:35.405Z,60.90
2023-12-30T12:19:05.746Z,60.80
2023-12-30T12:21:32.593Z,60.90
2023-12-30T12:23:59.248Z,60.90
2023-12-30T12:26:26.211Z,60.90
2023-12-30T12:28:56.484Z,60.90
2023-12-30T12:31:28.593Z,60.70
2023-12-30T12:33:55.261Z,60.70
2023-12-30T12:36:22.019Z,60.70
2023-12-30T12:38:49.094Z,60.60
2023-12-30T12:41:15.811Z,60.60
2023-12-30T12:43:42.490Z,60.60
2023-12-30T12:46:10.061Z,60.60
2023-12-30T12:48:39.190Z,60.60
2023-12-30T12:51:06.020Z,60.60
2023-12-30T12:53:32.687Z,60.60
2023-12-30T12:55:59.265Z,60.50
2023-12-30T12:58:25.973Z,60.40
2023-12-30T13:00:52.699Z,60.40
2023-12-30T13:03:19.427Z,60.40
2023-12-30T13:05:47.308Z,60.10
2023-12-30T13:08:14.130Z,60.00
2023-12-30T13:10:48.478Z,60.00
2023-12-30T13:13:15.495Z,60.00
2023-12-30T13:15:42.347Z,59.90
2023-12-30T13:18:14.092Z,60.10
2023-12-30T13:20:43.494Z,60.10
2023-12-30T13:23:12.048Z,59.90
2023-12-30T13:25:39.376Z,59.80
2023-12-30T13:28:07.455Z,59.70
2023-12-30T13:30:34.251Z,59.70
2023-12-30T13:33:04.882Z,59.70
2023-12-30T13:35:35.884Z,59.70
2023-12-30T13:38:07.667Z,59.70
2023-12-30T13:40:34.795Z,59.40
2023-12-30T13:43:08.811Z,59.40
2023-12-30T13:45:37.219Z,59.40
2023-12-30T13:48:07.199Z,59.20
2023-12-30T13:50:56.466Z,59.20
2023-12-30T13:53:25.356Z,59.20
2023-12-30T13:55:54.363Z,59.20
2023-12-30T13:58:21.129Z,59.30
2023-12-30T14:00:48.584Z,59.40
2023-12-30T14:03:16.519Z,59.50
2023-12-30T14:05:46.967Z,59.50
2023-12-30T14:08:37.047Z,59.60
2023-12-30T14:11:07.937Z,59.70
2023-12-30T14:13:34.632Z,59.80
2023-12-30T14:16:01.258Z,59.80
2023-12-30T14:18:28.245Z,59.90
2023-12-30T14:20:54.970Z,59.90
2023-12-30T14:23:21.605Z,59.90
2023-12-30T14:25:48.331Z,59.90
2023-12-30T14:28:15.131Z,59.90
2023-12-30T14:30:42.322Z,59.90
2023-12-30T14:33:10.140Z,59.90
2023-12-30T14:35:36.844Z,59.80
2023-12-30T14:38:05.316Z,59.80
2023-12-30T14:40:32.136Z,59.70
2023-12-30T14:42:58.917Z,59.70
2023-12-30T14:45:25.606Z,59.70
2023-12-30T14:47:52.316Z,59.70
2023-12-30T14:50:19.062Z,59.70
2023-12-30T14:52:45.932Z,59.70
2023-12-30T14:55:12.792Z,59.70
2023-12-30T14:57:41.928Z,59.90
2023-12-30T15:00:13.995Z,60.00
2023-12-30T15:02:41.991Z,60.00
2023-12-30T15:05:12.293Z,60.10
2023-12-30T15:07:42.285Z,60.20
2023-12-30T15:10:10.692Z,60.20
2023-12-30T15:12:38.084Z,60.30
2023-12-30T15:15:05.156Z,60.40
2023-12-30T15:17:31.905Z,60.50
2023-12-30T15:19:59.245Z,60.60
2023-12-30T15:22:29.344Z,60.80
2023-12-30T15:24:56.159Z,60.90
2023-12-30T15:27:23.004Z,60.90
2023-12-30T15:29:49.602Z,61.00
2023-12-30T15:32:16.488Z,61.10
2023-12-30T15:34:43.285Z,61.20
2023-12-30T15:37:10.554Z,61.30
2023-12-30T15:39:37.254Z,61.50
2023-12-30T15:42:05.149Z,61.60
2023-12-30T15:44:37.746Z,61.80
2023-12-30T15:47:08.225Z,62.00
2023-12-30T15:49:34.941Z,62.10
2023-12-30T15:52:02.005Z,62.20
2023-12-30T15:54:28.776Z,62.30
2023-12-30T15:56:55.375Z,62.40
2023-12-30T15:59:22.006Z,62.60
2023-12-30T16:01:48.956Z,62.70
2023-12-30T16:04:15.882Z,62.80
2023-12-30T16:06:42.626Z,63.00
2023-12-30T16:09:09.280Z,63.20
2023-12-30T16:11:36.685Z,63.20
2023-12-30T16:14:05.614Z,63.30
2023-12-30T16:16:34.861Z,63.60
2023-12-30T16:19:01.977Z,63.70
2023-12-30T16:21:28.765Z,63.80
2023-12-30T16:23:55.424Z,63.80
2023-12-30T16:26:23.862Z,63.80
2023-12-30T16:28:50.504Z,64.00
2023-12-30T16:31:17.427Z,63.90
2023-12-30T16:33:44.963Z,63.90
2023-12-30T16:36:13.012Z,63.80
2023-12-30T16:38:39.612Z,63.80
2023-12-30T16:41:06.220Z,63.80
2023-12-30T16:43:35.047Z,63.80
2023-12-30T16:46:02.296Z,63.90
2023-12-30T16:48:29.071Z,63.90
2023-12-30T16:50:55.900Z,64.00
2023-12-30T16:53:22.687Z,64.10
2023-12-30T16:55:51.588Z,64.20
2023-12-30T16:58:20.013Z,64.30
2023-12-30T17:00:48.320Z,64.30
2023-12-30T17:03:15.305Z,64.40
2023-12-30T17:05:43.447Z,64.50
2023-12-30T17:08:10.126Z,64.60
2023-12-30T17:10:37.031Z,64.70
2023-12-30T17:13:04.113Z,64.80
2023-12-30T17:15:30.889Z,64.90
2023-12-30T17:17:57.775Z,65.00
2023-12-30T17:20:24.436Z,65.00
2023-12-30T17:22:51.057Z,65.20
2023-12-30T17:25:17.714Z,65.30
2023-12-30T17:27:45.091Z,65.40
2023-12-30T17:30:12.459Z,65.40
2023-12-30T17:32:39.230Z,65.50
2023-12-30T17:35:06.750Z,65.50
2023-12-30T17:37:33.533Z,65.60
2023-12-30T17:40:00.315Z,65.70
2023-12-30T17:42:27.007Z,65.70
2023-12-30T17:44:53.589Z,65.80
2023-12-30T17:47:20.493Z,65.80
2023-12-30T17:49:48.191Z,65.90
2023-12-30T17:52:15.082Z,66.00
2023-12-30T17:54:42.630Z,66.10
2023-12-30T17:57:09.639Z,66.20
2023-12-30T17:59:36.315Z,66.30
2023-12-30T18:02:03.028Z,66.40
2023-12-30T18:04:30.159Z,66.40
2023-12-30T18:06:56.738Z,66.40
2023-12-30T18:09:23.380Z,66.40
2023-12-30T18:11:49.987Z,66.40
2023-12-30T18:14:18.760Z,66.50
2023-12-30T18:16:45.458Z,66.60
2023-12-30T18:19:12.565Z,66.60
2023-12-30T18:21:39.311Z,66.80
2023-12-30T18:24:06.228Z,66.80
2023-12-30T18:26:32.845Z,66.80
2023-12-30T18:28:59.459Z,66.80
2023-12-30T18:31:26.152Z,66.90
2023-12-30T18:33:52.909Z,67.00
2023-12-30T18:36:19.613Z,67.00
2023-12-30T18:38:46.225Z,67.10
2023-12-30T18:41:13.400Z,67.40
2023-12-30T18:43:39.973Z,67.40
2023-12-30T18:46:06.952Z,67.30
2023-12-30T18:48:33.638Z,67.20
2023-12-30T18:51:00.807Z,67.10
2023-12-30T18:53:27.433Z,67.10
2023-12-30T18:55:54.344Z,67.10
2023-12-30T18:58:21.289Z,67.10
2023-12-30T19:00:50.153Z,67.10
2023-12-30T19:03:16.817Z,67.10
2023-12-30T19:05:43.472Z,67.30
2023-12-30T19:08:10.226Z,67.50
2023-12-30T19:10:36.970Z,67.50
2023-12-30T19:13:05.693Z,67.50
2023-12-30T19:15:32.678Z,67.50
2023-12-30T19:17:59.423Z,67.50
2023-12-30T19:20:26.183Z,67.50
2023-12-30T19:22:53.115Z,67.50
2023-12-30T19:25:19.822Z,67.50
2023-12-30T19:27:47.034Z,67.50
2023-12-30T19:30:14.225Z,67.60
2023-12-30T19:32:40.836Z,67.60
2023-12-30T19:35:08.787Z,67.70
2023-12-30T19:37:35.721Z,67.70
2023-12-30T19:40:02.430Z,67.80
2023-12-30T19:42:29.127Z,67.90
2023-12-30T19:44:57.374Z,68.00
2023-12-30T19:47:24.302Z,68.10
2023-12-30T19:49:51.032Z,68.10
2023-12-30T19:52:17.734Z,68.10
2023-12-30T19:54:44.397Z,68.20
2023-12-30T19:57:11.378Z,68.30
2023-12-30T19:59:40.328Z,68.30
2023-12-30T20:02:08.101Z,68.30
2023-12-30T20:04:40.198Z,68.40
2023-12-30T20:07:10.326Z,68.50
2023-12-30T20:09:37.036Z,68.60
2023-12-30T20:12:04.193Z,68.70
2023-12-30T20:14:30.903Z,68.80
2023-12-30T20:17:01.620Z,68.80
2023-12-30T20:19:31.622Z,68.90
2023-12-30T20:21:58.271Z,69.00
2023-12-30T20:24:27.303Z,69.00
2023-12-30T20:26:55.191Z,69.10
2023-12-30T20:29:21.993Z,69.10
2023-12-30T20:31:48.823Z,69.20
2023-12-30T20:34:15.645Z,69.30
2023-12-30T20:36:42.335Z,69.30
2023-12-30T20:39:09.780Z,69.30
2023-12-30T20:41:41.149Z,69.40
2023-12-30T20:44:08.484Z,69.50
2023-12-30T20:46:35.172Z,69.50
2023-12-30T20:49:04.747Z,69.60
2023-12-30T20:51:31.493Z,69.60
2023-12-30T20:53:58.142Z,69.60
2023-12-30T20:56:24.748Z,69.60
2023-12-30T20:58:51.421Z,69.60
2023-12-30T21:01:18.199Z,69.60
2023-12-30T21:03:45.004Z,69.60
2023-12-30T21:06:11.784Z,69.60
2023-12-30T21:08:40.405Z,69.60
2023-12-30T21:11:08.491Z,69.70
2023-12-30T21:13:35.237Z,69.60
2023-12-30T21:16:01.868Z,69.60
2023-12-30T21:18:28.627Z,69.60
2023-12-30T21:20:55.280Z,69.50
2023-12-30T21:23:21.888Z,69.50
2023-12-30T21:25:50.242Z,69.40
2023-12-30T21:28:16.914Z,69.30
2023-12-30T21:30:43.666Z,69.30
2023-12-30T21:33:10.331Z,69.30
2023-12-30T21:35:36.969Z,69.30
2023-12-30T21:38:03.835Z,69.30
2023-12-30T21:40:30.495Z,69.30
2023-12-30T21:42:57.172Z,69.30
2023-12-30T21:45:23.817Z,69.40
2023-12-30T21:47:50.598Z,69.50
2023-12-30T21:50:17.358Z,69.50
2023-12-30T21:52:44.480Z,69.60
2023-12-30T21:55:11.492Z,69.70
2023-12-30T21:57:39.734Z,69.70
2023-12-30T22:00:06.997Z,69.70
2023-12-30T22:02:35.041Z,69.60
2023-12-30T22:05:01.948Z,69.70
2023-12-30T22:07:28.668Z,69.70
2023-12-30T22:09:55.330Z,69.80
2023-12-30T22:12:22.008Z,69.90
2023-12-30T22:14:48.602Z,70.00
2023-12-30T22:17:15.293Z,70.10
2023-12-30T22:19:42.579Z,70.30
2023-12-30T22:22:09.425Z,70.30
2023-12-30T22:24:36.084Z,70.50
2023-12-30T22:27:02.806Z,70.50
2023-12-30T22:29:29.401Z,70.60
2023-12-30T22:31:56.020Z,70.60
2023-12-30T22:34:22.670Z,70.80
2023-12-30T22:36:49.897Z,70.70
2023-12-30T22:39:19.632Z,70.70
2023-12-30T22:41:46.293Z,70.70
2023-12-30T22:44:13.008Z,70.70
2023-12-30T22:46:46.356Z,70.80
2023-12-30T22:49:13.986Z,70.80
2023-12-30T22:51:47.886Z,70.80
2023-12-30T22:54:15.606Z,70.80
2023-12-30T22:56:43.858Z,70.90
2023-12-30T22:59:15.570Z,70.90
2023-12-30T23:01:42.494Z,71.00
2023-12-30T23:04:09.937Z,71.00
2023-12-30T23:06:36.926Z,70.90
2023-12-30T23:09:03.822Z,70.90
2023-12-30T23:11:30.490Z,70.90
2023-12-30T23:13:57.124Z,70.90
2023-12-30T23:16:24.660Z,70.90
2023-12-30T23:18:52.027Z,70.90
2023-12-30T23:21:18.907Z,70.90
2023-12-30T23:23:45.543Z,70.90
2023-12-30T23:26:12.275Z,70.90
2023-12-30T23:28:38.998Z,70.90
2023-12-30T23:31:06.830Z,70.90
2023-12-30T23:33:33.623Z,70.90
2023-12-30T23:36:00.278Z,71.00
2023-12-30T23:38:26.928Z,71.00
2023-12-30T23:40:53.571Z,71.00
2023-12-30T23:43:20.276Z,71.00
2023-12-30T23:45:46.925Z,71.00
2023-12-30T23:48:14.379Z,71.00
2023-12-30T23:50:41.092Z,71.00
2023-12-30T23:53:08.367Z,71.00
2023-12-30T23:55:35.249Z,71.00
2023-12-30T23:58:01.982Z,71.00
